createdAt,value
2019-03-08T00:00:32.486Z,83.45
2019-03-08T00:03:01.344Z,84.51
2019-03-08T00:05:29.837Z,84.11
2019-03-08T00:07:58.783Z,83.71
2019-03-08T00:10:27.290Z,85.08
2019-03-08T00:12:56.980Z,84.84
2019-03-08T00:15:25.481Z,85.44
2019-03-08T00:17:54.448Z,85.22
2019-03-08T00:20:22.955Z,85.19
2019-03-08T00:22:51.489Z,85.39
2019-03-08T00:25:19.982Z,84.47
2019-03-08T00:27:48.888Z,85.50
2019-03-08T00:30:17.421Z,85.48
2019-03-08T00:32:46.333Z,85.07
2019-03-08T00:35:14.836Z,85.02
2019-03-08T00:37:43.382Z,85.00
2019-03-08T00:40:14.561Z,85.81
2019-03-08T00:42:43.084Z,85.45
2019-03-08T00:45:16.661Z,85.81
2019-03-08T00:47:45.311Z,86.28
2019-03-08T00:50:14.330Z,87.09
2019-03-08T00:52:42.869Z,87.47
2019-03-08T00:55:12.613Z,87.67
2019-03-08T00:57:51.858Z,88.19
2019-03-08T01:00:21.587Z,88.41
2019-03-08T01:02:50.132Z,89.68
2019-03-08T01:05:19.240Z,90.28
2019-03-08T01:07:50.344Z,90.56
2019-03-08T01:10:23.811Z,90.74
2019-03-08T01:12:52.477Z,91.12
2019-03-08T01:15:21.256Z,91.79
2019-03-08T01:17:50.145Z,91.68
2019-03-08T01:20:20.213Z,91.93
2019-03-08T01:22:49.020Z,92.08
2019-03-08T01:25:18.315Z,91.52
2019-03-08T01:27:58.838Z,91.93
2019-03-08T01:30:27.584Z,92.27
2019-03-08T01:32:56.345Z,92.05
2019-03-08T01:35:24.976Z,91.22
2019-03-08T01:37:54.019Z,91.14
2019-03-08T01:40:22.640Z,91.90
2019-03-08T01:42:51.869Z,91.40
2019-03-08T01:45:20.706Z,91.56
2019-03-08T01:47:49.386Z,91.97
2019-03-08T01:50:18.080Z,91.54
2019-03-08T01:52:47.210Z,91.96
2019-03-08T01:55:16.065Z,91.49
2019-03-08T01:57:44.659Z,91.60
2019-03-08T02:00:21.608Z,91.89
2019-03-08T02:02:50.232Z,91.88
2019-03-08T02:05:19.796Z,91.43
2019-03-08T02:07:48.415Z,91.50
2019-03-08T02:10:17.396Z,91.02
2019-03-08T02:12:46.072Z,91.06
2019-03-08T02:15:18.966Z,89.97
2019-03-08T02:17:47.568Z,90.26
2019-03-08T02:20:21.704Z,89.27
2019-03-08T02:22:50.356Z,90.09
2019-03-08T02:25:19.030Z,90.29
2019-03-08T02:27:47.656Z,90.64
2019-03-08T02:30:17.642Z,90.54
2019-03-08T02:32:46.538Z,89.84
2019-03-08T02:35:18.351Z,89.66
2019-03-08T02:37:47.312Z,89.28
2019-03-08T02:40:33.419Z,89.25
2019-03-08T02:43:03.944Z,89.24
2019-03-08T02:45:32.832Z,89.07
2019-03-08T02:48:01.595Z,89.17
2019-03-08T02:50:30.196Z,89.11
2019-03-08T02:52:58.891Z,88.54
2019-03-08T02:55:27.479Z,88.17
2019-03-08T02:57:56.043Z,87.71
2019-03-08T03:00:27.446Z,88.30
2019-03-08T03:02:56.012Z,87.61
2019-03-08T03:05:24.567Z,87.42
2019-03-08T03:07:53.128Z,87.34
2019-03-08T03:10:21.837Z,87.90
2019-03-08T03:12:50.380Z,87.26
2019-03-08T03:15:18.883Z,86.56
2019-03-08T03:17:47.469Z,88.16
2019-03-08T03:20:16.836Z,87.04
2019-03-08T03:22:45.488Z,87.11
2019-03-08T03:25:15.705Z,86.55
2019-03-08T03:27:46.310Z,86.24
2019-03-08T03:30:16.945Z,86.70
2019-03-08T03:32:45.473Z,85.85
2019-03-08T03:35:14.135Z,86.24
2019-03-08T03:37:42.764Z,86.38
2019-03-08T03:40:16.660Z,85.66
2019-03-08T03:42:45.356Z,86.22
2019-03-08T03:45:18.885Z,85.66
2019-03-08T03:47:47.551Z,84.72
2019-03-08T03:50:18.335Z,84.83
2019-03-08T03:52:46.507Z,84.38
2019-03-08T03:55:16.923Z,83.85
2019-03-08T03:57:45.853Z,82.89
2019-03-08T04:00:17.733Z,83.46
2019-03-08T04:02:46.495Z,81.86
2019-03-08T04:05:15.253Z,82.60
2019-03-08T04:07:43.920Z,80.72
2019-03-08T04:10:14.821Z,80.66
2019-03-08T04:12:43.340Z,80.98
2019-03-08T04:15:16.379Z,81.68
2019-03-08T04:17:45.216Z,82.84
2019-03-08T04:20:16.600Z,81.05
2019-03-08T04:22:45.529Z,80.26
2019-03-08T04:25:14.894Z,80.29
2019-03-08T04:27:43.501Z,81.00
2019-03-08T04:30:19.414Z,79.79
2019-03-08T04:32:47.926Z,79.82
2019-03-08T04:35:16.496Z,79.44
2019-03-08T04:37:45.431Z,78.58
2019-03-08T04:40:17.014Z,79.39
2019-03-08T04:42:45.709Z,78.58
2019-03-08T04:45:15.638Z,78.96
2019-03-08T04:47:44.221Z,78.51
2019-03-08T04:50:14.325Z,78.43
2019-03-08T04:52:42.876Z,79.07
2019-03-08T04:55:17.008Z,78.42
2019-03-08T04:57:47.253Z,77.71
2019-03-08T05:00:17.969Z,77.97
2019-03-08T05:02:46.674Z,79.34
2019-03-08T05:05:15.294Z,79.08
2019-03-08T05:07:44.269Z,78.26
2019-03-08T05:10:17.846Z,78.64
2019-03-08T05:12:46.425Z,77.97
2019-03-08T05:15:15.829Z,77.63
2019-03-08T05:17:44.483Z,77.97
2019-03-08T05:20:13.751Z,78.07
2019-03-08T05:22:42.393Z,78.37
2019-03-08T05:25:13.187Z,77.58
2019-03-08T05:27:41.724Z,77.89
2019-03-08T05:30:17.153Z,77.14
2019-03-08T05:32:45.684Z,76.95
2019-03-08T05:35:14.916Z,77.76
2019-03-08T05:37:44.077Z,77.95
2019-03-08T05:40:14.736Z,77.42
2019-03-08T05:42:43.818Z,76.70
2019-03-08T05:45:13.758Z,77.09
2019-03-08T05:47:42.319Z,76.87
2019-03-08T05:50:12.184Z,77.13
2019-03-08T05:52:41.008Z,76.39
2019-03-08T05:55:10.776Z,76.78
2019-03-08T05:57:39.662Z,76.26
2019-03-08T06:00:20.272Z,75.72
2019-03-08T06:02:48.907Z,76.14
2019-03-08T06:05:17.883Z,76.22
2019-03-08T06:07:46.432Z,75.83
2019-03-08T06:10:31.748Z,75.72
2019-03-08T06:13:01.486Z,75.98
2019-03-08T06:15:30.052Z,76.35
2019-03-08T06:17:58.878Z,76.21
2019-03-08T06:20:27.408Z,76.35
2019-03-08T06:22:56.057Z,76.01
2019-03-08T06:25:24.968Z,76.96
2019-03-08T06:27:53.587Z,76.00
2019-03-08T06:30:22.151Z,75.99
2019-03-08T06:32:51.169Z,75.91
2019-03-08T06:35:19.805Z,76.02
2019-03-08T06:37:48.474Z,76.43
2019-03-08T06:40:17.597Z,75.75
2019-03-08T06:42:46.119Z,76.55
2019-03-08T06:45:16.938Z,76.49
2019-03-08T06:47:46.143Z,76.32
2019-03-08T06:50:15.686Z,77.13
2019-03-08T06:52:44.300Z,77.19
2019-03-08T06:55:15.121Z,76.61
2019-03-08T06:57:44.131Z,76.80
2019-03-08T07:00:34.719Z,77.05
2019-03-08T07:03:04.871Z,76.95
2019-03-08T07:05:33.480Z,77.12
2019-03-08T07:08:02.152Z,77.17
2019-03-08T07:10:30.748Z,77.99
2019-03-08T07:13:03.501Z,77.93
2019-03-08T07:15:30.220Z,77.54
2019-03-08T07:17:58.839Z,78.29
2019-03-08T07:20:35.092Z,77.59
2019-03-08T07:23:14.436Z,77.68
2019-03-08T07:25:51.846Z,77.97
2019-03-08T07:28:34.527Z,77.35
2019-03-08T07:31:16.891Z,78.06
2019-03-08T07:33:53.245Z,77.70
2019-03-08T07:36:35.965Z,77.71
2019-03-08T07:39:14.571Z,77.51
2019-03-08T07:41:51.759Z,77.29
2019-03-08T07:44:24.763Z,77.38
2019-03-08T07:46:57.963Z,78.00
2019-03-08T07:49:44.504Z,77.71
2019-03-08T07:52:15.033Z,77.36
2019-03-08T07:54:52.678Z,77.53
2019-03-08T07:57:20.503Z,78.12
2019-03-08T07:59:54.157Z,77.77
2019-03-08T08:02:30.504Z,78.45
2019-03-08T08:05:09.916Z,77.09
2019-03-08T08:07:45.863Z,77.42
2019-03-08T08:10:22.303Z,77.35
2019-03-08T08:12:55.617Z,77.49
2019-03-08T08:15:32.065Z,77.96
2019-03-08T08:18:02.645Z,77.85
2019-03-08T08:20:32.783Z,78.27
2019-03-08T08:23:03.088Z,78.71
2019-03-08T08:25:49.872Z,78.92
2019-03-08T08:28:20.146Z,79.29
2019-03-08T08:30:52.997Z,79.20
2019-03-08T08:33:26.459Z,79.52
2019-03-08T08:36:12.996Z,80.04
2019-03-08T08:38:44.444Z,80.36
2019-03-08T08:41:23.421Z,80.31
2019-03-08T08:43:56.025Z,80.48
2019-03-08T08:46:42.480Z,80.69
2019-03-08T08:49:15.554Z,81.14
2019-03-08T08:51:45.756Z,80.87
2019-03-08T08:54:32.188Z,80.51
2019-03-08T08:57:02.395Z,80.42
2019-03-08T08:59:32.945Z,80.91
2019-03-08T09:02:21.295Z,80.86
2019-03-08T09:04:57.243Z,80.83
2019-03-08T09:07:27.441Z,81.12
2019-03-08T09:10:03.391Z,81.11
2019-03-08T09:12:36.535Z,80.97
2019-03-08T09:15:10.031Z,81.78
2019-03-08T09:17:42.769Z,81.82
2019-03-08T09:20:21.917Z,82.33
2019-03-08T09:22:58.078Z,83.11
2019-03-08T09:25:37.491Z,86.44
2019-03-08T09:28:16.363Z,88.38
2019-03-08T09:30:49.436Z,87.80
2019-03-08T09:33:20.694Z,88.36
2019-03-08T09:35:51.063Z,88.59
2019-03-08T09:38:24.353Z,89.11
2019-03-08T09:41:05.283Z,88.68
2019-03-08T09:43:35.449Z,87.54
2019-03-08T09:46:22.784Z,87.16
2019-03-08T09:48:53.525Z,88.00
2019-03-08T09:51:40.534Z,87.94
2019-03-08T09:54:18.207Z,89.00
2019-03-08T09:56:51.095Z,90.11
2019-03-08T09:59:30.411Z,91.30
2019-03-08T10:02:00.683Z,91.20
2019-03-08T10:04:49.039Z,91.89
2019-03-08T10:07:27.854Z,91.85
2019-03-08T10:09:58.372Z,91.37
2019-03-08T10:12:34.416Z,91.35
2019-03-08T10:15:10.326Z,91.01
2019-03-08T10:17:40.504Z,92.00
2019-03-08T10:20:17.500Z,98.32
2019-03-08T10:23:02.442Z,100.00
2019-03-08T10:25:32.670Z,100.00
2019-03-08T10:28:02.916Z,100.00
2019-03-08T10:30:38.328Z,100.00
2019-03-08T10:33:24.789Z,100.00
2019-03-08T10:36:11.491Z,100.00
2019-03-08T10:38:42.124Z,100.00
2019-03-08T10:41:15.480Z,100.00
2019-03-08T10:43:46.109Z,98.14
2019-03-08T10:46:19.014Z,89.03
2019-03-08T10:48:49.222Z,88.33
2019-03-08T10:51:19.537Z,90.82
2019-03-08T10:54:06.032Z,91.31
2019-03-08T10:56:53.451Z,92.34
2019-03-08T10:59:32.863Z,91.64
2019-03-08T11:02:06.171Z,91.46
2019-03-08T11:04:36.453Z,87.88
2019-03-08T11:07:09.115Z,86.37
2019-03-08T11:09:55.822Z,85.35
2019-03-08T11:12:26.170Z,87.37
2019-03-08T11:14:56.395Z,82.79
2019-03-08T11:17:29.614Z,86.77
2019-03-08T11:20:09.227Z,92.48
2019-03-08T11:22:39.513Z,94.46
2019-03-08T11:25:11.020Z,94.37
2019-03-08T11:27:41.882Z,96.46
2019-03-08T11:30:21.773Z,99.66
2019-03-08T11:32:55.041Z,100.00
2019-03-08T11:35:37.511Z,99.59
2019-03-08T11:38:07.969Z,100.00
2019-03-08T11:40:55.472Z,100.00
2019-03-08T11:46:27.510Z,100.00
2019-03-08T11:49:06.813Z,100.00
2019-03-08T11:51:40.030Z,100.00
2019-03-08T11:54:10.229Z,100.00
2019-03-08T11:56:43.317Z,100.00
2019-03-08T11:59:16.369Z,100.00
2019-03-08T12:02:02.854Z,100.00
2019-03-08T12:04:33.033Z,92.09
2019-03-08T12:07:16.742Z,87.43
2019-03-08T12:09:52.622Z,86.97
2019-03-08T12:12:26.415Z,75.06
2019-03-08T12:14:59.126Z,68.15
2019-03-08T12:17:29.852Z,71.52
2019-03-08T12:20:00.304Z,64.69
2019-03-08T12:22:33.960Z,66.05
2019-03-08T12:25:23.258Z,69.43
2019-03-08T12:27:56.270Z,66.57
2019-03-08T12:30:32.382Z,69.33
2019-03-08T12:33:05.482Z,66.81
2019-03-08T12:35:38.215Z,72.66
2019-03-08T12:38:14.315Z,72.25
2019-03-08T12:40:56.617Z,72.19
2019-03-08T12:43:32.572Z,69.10
2019-03-08T12:46:03.036Z,64.87
2019-03-08T12:48:50.335Z,61.34
2019-03-08T12:51:26.349Z,63.40
2019-03-08T12:54:12.007Z,56.59
2019-03-08T12:56:58.366Z,58.62
2019-03-08T12:59:28.618Z,65.22
2019-03-08T13:02:08.015Z,67.32
2019-03-08T13:04:44.312Z,68.02
2019-03-08T13:07:17.306Z,67.53
2019-03-08T13:09:48.787Z,66.95
2019-03-08T13:12:17.405Z,67.78
2019-03-08T13:14:46.027Z,68.00
2019-03-08T13:17:14.597Z,65.04
2019-03-08T13:19:43.442Z,66.98
2019-03-08T13:22:12.064Z,69.57
2019-03-08T13:24:40.682Z,71.04
2019-03-08T13:27:09.253Z,71.16
2019-03-08T13:29:37.835Z,72.62
2019-03-08T13:32:06.427Z,73.48
2019-03-08T13:34:35.045Z,72.39
2019-03-08T13:37:06.205Z,75.84
2019-03-08T13:39:34.861Z,75.58
2019-03-08T13:42:03.436Z,77.37
2019-03-08T13:44:32.111Z,76.65
2019-03-08T13:47:00.976Z,73.94
2019-03-08T13:49:29.615Z,76.57
2019-03-08T13:51:58.548Z,63.44
2019-03-08T13:54:28.146Z,51.63
2019-03-08T13:56:57.018Z,45.63
2019-03-08T13:59:25.679Z,57.64
2019-03-08T14:01:54.643Z,60.35
2019-03-08T14:04:23.218Z,58.89
2019-03-08T14:06:51.764Z,61.87
2019-03-08T14:09:20.384Z,62.89
2019-03-08T14:11:48.972Z,63.67
2019-03-08T14:14:17.551Z,62.57
2019-03-08T14:16:46.363Z,61.66
2019-03-08T14:19:15.941Z,62.25
2019-03-08T14:21:44.544Z,62.39
2019-03-08T14:24:13.112Z,62.07
2019-03-08T14:26:41.714Z,60.98
2019-03-08T14:29:10.268Z,61.63
2019-03-08T14:31:52.980Z,62.34
2019-03-08T14:34:21.871Z,60.75
2019-03-08T14:36:50.485Z,60.84
2019-03-08T14:39:19.161Z,60.84
2019-03-08T14:41:55.346Z,62.50
2019-03-08T14:44:26.438Z,61.15
2019-03-08T14:46:57.896Z,61.41
2019-03-08T14:49:26.474Z,61.69
2019-03-08T14:51:55.094Z,61.95
2019-03-08T14:54:24.395Z,62.38
2019-03-08T14:56:52.963Z,62.69
2019-03-08T14:59:21.641Z,63.95
2019-03-08T15:01:50.257Z,62.53
2019-03-08T15:04:18.945Z,61.72
2019-03-08T15:06:47.610Z,61.27
2019-03-08T15:09:16.558Z,60.81
2019-03-08T15:11:45.718Z,61.26
2019-03-08T15:14:14.416Z,59.88
2019-03-08T15:16:43.585Z,59.99
2019-03-08T15:19:12.286Z,60.57
2019-03-08T15:21:48.150Z,59.88
2019-03-08T15:24:11.877Z,60.43
2019-03-08T15:26:40.576Z,60.03
2019-03-08T15:29:09.153Z,61.20
2019-03-08T15:31:37.721Z,62.59
2019-03-08T15:34:07.611Z,63.61
2019-03-08T15:36:36.115Z,64.78
2019-03-08T15:39:06.292Z,65.16
2019-03-08T15:41:34.820Z,67.55
2019-03-08T15:44:03.424Z,65.79
2019-03-08T15:46:33.438Z,66.82
2019-03-08T15:49:02.074Z,66.77
2019-03-08T15:51:31.265Z,68.16
2019-03-08T15:54:00.318Z,67.73
2019-03-08T15:56:29.561Z,67.63
2019-03-08T15:58:58.549Z,67.45
2019-03-08T16:01:27.107Z,67.90
2019-03-08T16:03:55.657Z,69.17
2019-03-08T16:06:24.287Z,67.58
2019-03-08T16:08:53.090Z,69.35
2019-03-08T16:11:21.747Z,69.99
2019-03-08T16:13:50.753Z,69.57
2019-03-08T16:16:19.307Z,70.48
2019-03-08T16:18:48.323Z,71.80
2019-03-08T16:21:16.964Z,71.38
2019-03-08T16:23:45.692Z,71.29
2019-03-08T16:26:14.299Z,72.03
2019-03-08T16:28:43.006Z,71.68
2019-03-08T16:31:13.314Z,72.87
2019-03-08T16:33:43.492Z,72.53
2019-03-08T16:36:13.543Z,72.50
2019-03-08T16:38:59.846Z,72.98
2019-03-08T16:41:36.171Z,75.66
2019-03-08T16:44:06.384Z,75.03
2019-03-08T16:46:51.379Z,75.25
2019-03-08T16:49:21.484Z,75.34
2019-03-08T16:51:57.246Z,75.21
2019-03-08T16:54:44.135Z,76.41
2019-03-08T16:57:14.855Z,78.18
2019-03-08T16:59:45.106Z,78.19
2019-03-08T17:02:15.294Z,76.65
2019-03-08T17:04:51.481Z,75.14
2019-03-08T17:07:40.026Z,76.31
2019-03-08T17:10:16.445Z,74.29
2019-03-08T17:12:47.019Z,73.94
2019-03-08T17:15:17.334Z,74.55
2019-03-08T17:17:50.338Z,75.43
2019-03-08T17:20:29.851Z,75.97
2019-03-08T17:23:15.114Z,74.60
2019-03-08T17:25:45.382Z,73.81
2019-03-08T17:28:24.670Z,75.43
2019-03-08T17:30:55.465Z,75.25
2019-03-08T17:33:42.612Z,76.56
2019-03-08T17:36:29.182Z,74.73
2019-03-08T17:39:09.226Z,73.82
2019-03-08T17:41:39.479Z,73.83
2019-03-08T17:44:12.440Z,74.24
2019-03-08T17:46:52.112Z,75.75
2019-03-08T17:49:29.114Z,74.66
2019-03-08T17:52:14.300Z,76.21
2019-03-08T17:54:59.721Z,74.92
2019-03-08T17:57:30.225Z,74.51
2019-03-08T18:00:09.766Z,75.12
2019-03-08T18:02:57.154Z,75.70
2019-03-08T18:05:32.406Z,75.70
2019-03-08T18:08:22.102Z,75.99
2019-03-08T18:10:58.301Z,76.06
2019-03-08T18:13:31.528Z,75.47
2019-03-08T18:16:05.964Z,76.05
2019-03-08T18:18:55.658Z,75.83
2019-03-08T18:21:28.952Z,76.33
2019-03-08T18:24:04.054Z,76.24
2019-03-08T18:26:36.914Z,76.45
2019-03-08T18:29:07.495Z,76.86
2019-03-08T18:31:46.497Z,77.33
2019-03-08T18:34:32.886Z,78.70
2019-03-08T18:37:21.455Z,78.03
2019-03-08T18:39:57.514Z,78.17
2019-03-08T18:42:33.536Z,79.54
2019-03-08T18:45:06.750Z,79.77
2019-03-08T18:47:37.348Z,79.37
2019-03-08T18:50:12.586Z,80.62
2019-03-08T18:53:00.465Z,81.02
2019-03-08T18:55:31.412Z,81.53
2019-03-08T18:58:18.104Z,82.57
2019-03-08T19:00:48.422Z,83.07
2019-03-08T19:03:18.748Z,84.10
2019-03-08T19:05:49.124Z,85.42
2019-03-08T19:08:22.470Z,87.70
2019-03-08T19:10:52.814Z,87.28
2019-03-08T19:13:23.467Z,86.84
2019-03-08T19:15:54.512Z,86.15
2019-03-08T19:18:39.985Z,87.37
2019-03-08T19:21:13.066Z,87.42
2019-03-08T19:23:46.380Z,87.81
2019-03-08T19:26:31.793Z,88.29
2019-03-08T19:29:18.383Z,88.42
2019-03-08T19:31:48.763Z,88.65
2019-03-08T19:34:19.258Z,89.04
2019-03-08T19:37:04.899Z,89.96
2019-03-08T19:39:41.529Z,89.21
2019-03-08T19:42:20.769Z,89.68
2019-03-08T19:45:07.468Z,89.71
2019-03-08T19:47:53.213Z,89.51
2019-03-08T19:50:29.953Z,89.61
2019-03-08T19:53:07.393Z,89.39
2019-03-08T19:55:37.764Z,88.29
2019-03-08T19:58:26.340Z,88.61
2019-03-08T20:01:02.699Z,88.28
2019-03-08T20:03:33.355Z,88.24
2019-03-08T20:06:03.663Z,87.69
2019-03-08T20:08:37.731Z,87.80
2019-03-08T20:11:14.114Z,87.92
2019-03-08T20:13:44.397Z,88.02
2019-03-08T20:16:17.719Z,88.73
2019-03-08T20:18:54.587Z,88.98
2019-03-08T20:21:24.947Z,88.96
2019-03-08T20:24:01.389Z,88.92
2019-03-08T20:26:41.031Z,89.67
2019-03-08T20:29:26.602Z,90.04
2019-03-08T20:31:59.712Z,90.46
2019-03-08T20:34:48.379Z,90.63
2019-03-08T20:37:21.577Z,90.67
2019-03-08T20:39:58.372Z,90.74
2019-03-08T20:42:40.725Z,90.75
2019-03-08T20:45:12.361Z,91.20
2019-03-08T20:47:41.107Z,91.37
2019-03-08T20:50:11.786Z,91.13
2019-03-08T20:52:40.783Z,91.31
2019-03-08T20:55:11.180Z,91.73
2019-03-08T20:57:39.751Z,92.71
2019-03-08T21:00:12.526Z,93.29
2019-03-08T21:02:41.216Z,93.66
2019-03-08T21:05:10.182Z,93.76
2019-03-08T21:07:38.941Z,94.00
2019-03-08T21:10:11.081Z,94.49
2019-03-08T21:12:39.801Z,94.93
2019-03-08T21:15:11.975Z,95.20
2019-03-08T21:17:40.778Z,95.14
2019-03-08T21:20:12.303Z,95.36
2019-03-08T21:22:40.980Z,95.90
2019-03-08T21:25:13.183Z,95.80
2019-03-08T21:27:42.363Z,96.39
2019-03-08T21:30:19.118Z,96.61
2019-03-08T21:32:47.766Z,97.50
2019-03-08T21:35:16.680Z,97.18
2019-03-08T21:37:46.432Z,97.24
2019-03-08T21:40:15.614Z,98.06
2019-03-08T21:42:44.405Z,98.35
2019-03-08T21:45:15.414Z,98.83
2019-03-08T21:47:44.058Z,98.25
2019-03-08T21:50:15.221Z,98.08
2019-03-08T21:52:43.829Z,98.72
2019-03-08T21:55:12.391Z,98.77
2019-03-08T21:57:41.103Z,99.06
2019-03-08T22:00:18.365Z,99.33
2019-03-08T22:02:47.063Z,100.00
2019-03-08T22:05:17.759Z,100.00
2019-03-08T22:07:46.379Z,100.00
2019-03-08T22:10:32.750Z,100.00
2019-03-08T22:13:01.436Z,100.00
2019-03-08T22:15:30.130Z,100.00
2019-03-08T22:17:58.959Z,100.00
2019-03-08T22:20:27.658Z,100.00
2019-03-08T22:22:56.659Z,100.00
2019-03-08T22:25:25.504Z,100.00
2019-03-08T22:27:54.140Z,100.00
2019-03-08T22:30:22.766Z,100.00
2019-03-08T22:32:52.223Z,100.00
2019-03-08T22:35:20.802Z,100.00
2019-03-08T22:37:49.339Z,100.00
2019-03-08T22:40:18.607Z,100.00
2019-03-08T22:42:48.238Z,100.00
2019-03-08T22:45:16.839Z,100.00
2019-03-08T22:47:45.421Z,100.00
2019-03-08T22:50:15.451Z,100.00
2019-03-08T22:52:44.125Z,100.00
2019-03-08T22:55:15.616Z,100.00
2019-03-08T22:57:51.517Z,100.00
2019-03-08T23:00:27.629Z,100.00
2019-03-08T23:02:56.699Z,100.00
2019-03-08T23:05:25.745Z,100.00
2019-03-08T23:07:54.830Z,100.00
2019-03-08T23:10:23.456Z,100.00
2019-03-08T23:12:52.168Z,100.00
2019-03-08T23:15:20.982Z,100.00
2019-03-08T23:17:51.381Z,100.00
2019-03-08T23:20:19.947Z,100.00
2019-03-08T23:22:50.517Z,100.00
2019-03-08T23:25:19.555Z,100.00
2019-03-08T23:27:52.968Z,100.00
2019-03-08T23:30:23.204Z,100.00
2019-03-08T23:32:51.810Z,100.00
2019-03-08T23:35:22.624Z,100.00
2019-03-08T23:37:51.175Z,100.00
2019-03-08T23:40:19.775Z,100.00
2019-03-08T23:42:48.393Z,100.00
2019-03-08T23:45:17.398Z,100.00
2019-03-08T23:47:46.003Z,100.00
2019-03-08T23:50:14.706Z,100.00
2019-03-08T23:52:43.399Z,100.00
2019-03-08T23:55:12.189Z,100.00
2019-03-08T23:57:40.696Z,100.00
